Time,TemperatureF,DewpointF,PressureIn,WindDirection,WindDirectionDegrees,WindSpeedMPH,WindSpeedGustMPH,Humidity,HourlyPrecipIn,Conditions,Clouds,dailyrainin,SoftwareType,DateUTC
2013-06-14 00:01:00,70.0,64.0,29.48,WNW,295,8.0,12.0,80,0.00,,,0.60,,2013-06-14 04:01:00,
2013-06-14 00:12:00,70.0,64.0,29.48,WNW,295,8.0,12.0,80,0.00,,,0.60,,2013-06-14 04:12:00,
2013-06-14 00:23:00,70.0,61.0,29.48,WNW,300,10.0,14.0,73,0.00,,,0.60,,2013-06-14 04:23:00,
2013-06-14 00:33:00,70.0,61.0,29.48,NW,305,9.0,13.0,73,0.00,,,0.60,,2013-06-14 04:33:00,
2013-06-14 00:43:00,70.0,61.0,29.48,NW,305,9.0,13.0,73,0.00,,,0.60,,2013-06-14 04:43:00,
2013-06-14 00:53:00,70.0,60.0,29.48,West,280,13.0,18.0,71,0.00,,,0.60,,2013-06-14 04:53:00,
2013-06-14 01:02:00,70.0,60.0,29.48,NW,310,13.0,13.0,71,0.00,,,0.60,,2013-06-14 05:02:00,
2013-06-14 01:11:00,70.0,60.0,29.48,NW,310,13.0,13.0,71,0.00,,,0.60,,2013-06-14 05:11:00,
2013-06-14 01:22:00,68.0,59.0,29.48,NW,320,10.0,12.0,74,0.00,,,0.58,,2013-06-14 05:22:00,
2013-06-14 01:34:00,68.0,60.0,29.48,NW,310,10.0,12.0,75,0.00,,,0.58,,2013-06-14 05:34:00,
2013-06-14 01:43:00,68.0,60.0,29.48,NW,310,10.0,12.0,75,0.00,,,0.58,,2013-06-14 05:43:00,
2013-06-14 01:52:00,68.0,59.0,29.48,NW,310,10.0,15.0,73,0.00,,,0.57,,2013-06-14 05:52:00,
2013-06-14 02:02:00,68.0,59.0,29.48,WNW,285,9.0,9.0,73,0.00,,,0.57,,2013-06-14 06:02:00,
2013-06-14 02:12:00,68.0,59.0,29.48,WNW,285,9.0,9.0,73,0.00,,,0.57,,2013-06-14 06:12:00,
2013-06-14 02:22:00,68.0,60.0,29.51,NW,315,10.0,18.0,75,0.00,,,0.51,,2013-06-14 06:22:00,
2013-06-14 02:33:00,67.0,61.0,29.51,WNW,295,12.0,12.0,82,0.00,,,0.51,,2013-06-14 06:33:00,
2013-06-14 02:43:00,67.0,61.0,29.51,WNW,295,12.0,12.0,82,0.00,,,0.51,,2013-06-14 06:43:00,
2013-06-14 02:52:00,65.0,57.0,29.51,NNW,330,9.0,14.0,76,0.00,,,0.51,,2013-06-14 06:52:00,
2013-06-14 03:02:00,64.0,57.0,29.51,NW,325,9.0,12.0,78,0.00,,,0.51,,2013-06-14 07:02:00,
2013-06-14 03:12:00,62.0,56.0,29.54,NNW,330,7.0,10.0,81,0.00,,,0.51,,2013-06-14 07:12:00,
2013-06-14 03:22:00,62.0,56.0,29.54,NNW,330,7.0,10.0,81,0.00,,,0.51,,2013-06-14 07:22:00,
2013-06-14 03:33:00,63.0,56.0,29.57,NNW,340,7.0,14.0,79,0.00,,,0.51,,2013-06-14 07:33:00,
2013-06-14 03:43:00,63.0,56.0,29.57,NNW,340,7.0,14.0,79,0.00,,,0.51,,2013-06-14 07:43:00,
2013-06-14 03:53:00,62.0,55.0,29.57,NNW,330,8.0,13.0,79,0.00,,,0.51,,2013-06-14 07:53:00,
2013-06-14 04:02:00,62.0,54.0,29.57,NNW,340,8.0,12.0,76,0.00,,,0.51,,2013-06-14 08:02:00,
2013-06-14 04:12:00,62.0,54.0,29.57,NNW,340,8.0,12.0,76,0.00,,,0.51,,2013-06-14 08:12:00,
2013-06-14 04:23:00,61.0,53.0,29.57,NNW,345,10.0,13.0,74,0.00,,,0.51,,2013-06-14 08:23:00,
2013-06-14 04:33:00,61.0,53.0,29.57,North,0,9.0,13.0,74,0.00,,,0.51,,2013-06-14 08:33:00,
2013-06-14 04:43:00,61.0,53.0,29.57,North,0,9.0,13.0,74,0.00,,,0.51,,2013-06-14 08:43:00,
2013-06-14 04:53:00,60.0,53.0,29.60,North,355,7.0,10.0,78,0.00,,,0.51,,2013-06-14 08:53:00,
2013-06-14 05:02:00,60.0,53.0,29.60,NW,325,8.0,10.0,77,0.00,,,0.51,,2013-06-14 09:02:00,
2013-06-14 05:12:00,60.0,53.0,29.60,NW,325,8.0,10.0,77,0.00,,,0.51,,2013-06-14 09:12:00,
2013-06-14 05:22:00,59.0,52.0,29.63,NNW,330,6.0,10.0,78,0.00,,,0.51,,2013-06-14 09:22:00,
2013-06-14 05:33:00,59.0,52.0,29.63,North,0,5.0,5.0,77,0.00,,,0.51,,2013-06-14 09:33:00,
2013-06-14 05:43:00,59.0,52.0,29.63,North,0,5.0,5.0,77,0.00,,,0.51,,2013-06-14 09:43:00,
2013-06-14 05:53:00,59.0,51.0,29.63,North,5,2.0,5.0,75,0.00,,,0.51,,2013-06-14 09:53:00,
2013-06-14 06:01:00,59.0,51.0,29.63,North,10,3.0,5.0,75,0.00,,,0.51,,2013-06-14 10:01:00,
2013-06-14 06:12:00,59.0,51.0,29.63,North,10,3.0,5.0,75,0.00,,,0.51,,2013-06-14 10:12:00,
2013-06-14 06:22:00,59.0,52.0,29.66,NNW,345,5.0,7.0,78,0.00,,,0.51,,2013-06-14 10:22:00,
2013-06-14 06:34:00,59.0,52.0,29.66,North,355,5.0,5.0,78,0.01,,,0.52,,2013-06-14 10:34:00,
2013-06-14 06:43:00,59.0,52.0,29.66,North,355,5.0,5.0,78,0.01,,,0.52,,2013-06-14 10:43:00,
2013-06-14 06:53:00,57.0,54.0,29.66,NNW,340,5.0,8.0,90,0.01,,,0.52,,2013-06-14 10:53:00,
2013-06-14 07:02:00,57.0,54.0,29.66,NNW,345,5.0,8.0,91,0.01,,,0.52,,2013-06-14 11:02:00,
2013-06-14 07:11:00,57.0,54.0,29.66,NNW,345,5.0,8.0,91,0.01,,,0.52,,2013-06-14 11:11:00,
2013-06-14 07:23:00,57.0,55.0,29.69,North,0,3.0,8.0,93,0.03,,,0.54,,2013-06-14 11:23:00,
2013-06-14 07:32:00,57.0,55.0,29.69,NNW,335,2.0,2.0,94,0.01,,,0.54,,2013-06-14 11:32:00,
2013-06-14 07:43:00,57.0,55.0,29.69,NNW,335,2.0,2.0,94,0.01,,,0.54,,2013-06-14 11:43:00,
2013-06-14 07:52:00,56.0,55.0,29.69,NNW,345,5.0,9.0,96,0.04,,,0.57,,2013-06-14 11:52:00,
2013-06-14 08:02:00,56.0,55.0,29.69,North,350,5.0,6.0,97,0.06,,,0.58,,2013-06-14 12:02:00,
2013-06-14 08:12:00,56.0,55.0,29.69,North,350,5.0,6.0,97,0.06,,,0.58,,2013-06-14 12:12:00,
2013-06-14 08:23:00,56.0,55.0,29.72,NNW,345,5.0,9.0,98,0.06,,,0.60,,2013-06-14 12:23:00,
2013-06-14 08:33:00,56.0,55.0,29.72,NW,305,6.0,9.0,98,0.06,,,0.60,,2013-06-14 12:33:00,
2013-06-14 08:43:00,56.0,55.0,29.72,NW,305,6.0,9.0,98,0.06,,,0.60,,2013-06-14 12:43:00,
2013-06-14 08:52:00,56.0,55.0,29.72,NW,315,5.0,6.0,98,0.06,,,0.62,,2013-06-14 12:52:00,
2013-06-14 09:02:00,56.0,55.0,29.72,NW,315,5.0,6.0,98,0.06,,,0.62,,2013-06-14 13:02:00,
2013-06-14 09:12:00,56.0,55.0,29.75,NE,45,5.0,5.0,98,0.06,,,0.64,,2013-06-14 13:12:00,
2013-06-14 09:22:00,56.0,55.0,29.75,NNW,330,5.0,5.0,98,0.06,,,0.65,,2013-06-14 13:22:00,
2013-06-14 09:33:00,56.0,55.0,29.75,NNW,330,5.0,5.0,98,0.06,,,0.65,,2013-06-14 13:33:00,
2013-06-14 09:43:00,56.0,55.0,29.75,NNW,330,5.0,5.0,98,0.06,,,0.65,,2013-06-14 13:43:00,
2013-06-14 09:53:00,57.0,56.0,29.78,NNW,330,2.0,8.0,98,0.03,,,0.65,,2013-06-14 13:53:00,
2013-06-14 10:02:00,57.0,56.0,29.78,NNW,340,3.0,8.0,96,0.01,,,0.65,,2013-06-14 14:02:00,
2013-06-14 10:11:00,57.0,56.0,29.78,NNW,340,3.0,8.0,96,0.01,,,0.65,,2013-06-14 14:11:00,
2013-06-14 10:22:00,57.0,55.0,29.78,NNW,340,7.0,9.0,93,0.01,,,0.67,,2013-06-14 14:22:00,
2013-06-14 10:34:00,57.0,56.0,29.78,NNW,340,6.0,6.0,95,0.03,,,0.68,,2013-06-14 14:34:00,
2013-06-14 10:43:00,57.0,56.0,29.78,NNW,340,6.0,6.0,95,0.03,,,0.68,,2013-06-14 14:43:00,
2013-06-14 10:52:00,57.0,56.0,29.78,NNW,335,7.0,9.0,95,0.03,,,0.68,,2013-06-14 14:52:00,
2013-06-14 11:02:00,58.0,56.0,29.78,NNW,330,7.0,8.0,94,0.03,,,0.68,,2013-06-14 15:02:00,
2013-06-14 11:11:00,58.0,56.0,29.78,NNW,330,7.0,8.0,94,0.03,,,0.68,,2013-06-14 15:11:00,
2013-06-14 11:23:00,60.0,54.0,29.81,NNW,330,7.0,9.0,82,0.01,,,0.67,,2013-06-14 15:23:00,
2013-06-14 11:33:00,59.0,53.0,29.81,NNW,330,8.0,9.0,80,0.00,,,0.58,,2013-06-14 15:33:00,
2013-06-14 11:44:00,59.0,53.0,29.81,NNW,330,8.0,9.0,80,0.00,,,0.58,,2013-06-14 15:44:00,
2013-06-14 11:53:00,59.0,53.0,29.81,North,0,6.0,7.0,80,0.00,,,0.35,,2013-06-14 15:53:00,
2013-06-14 12:01:00,60.0,54.0,29.81,NNW,340,6.0,6.0,82,0.00,,,0.35,,2013-06-14 16:01:00,
2013-06-14 12:11:00,60.0,54.0,29.81,NNW,340,6.0,6.0,82,0.00,,,0.35,,2013-06-14 16:11:00,
2013-06-14 12:23:00,64.0,54.0,29.84,NNW,345,8.0,9.0,70,0.00,,,0.35,,2013-06-14 16:23:00,
2013-06-14 12:33:00,65.0,54.0,29.84,NNW,340,7.0,8.0,67,0.00,,,0.35,,2013-06-14 16:33:00,
2013-06-14 12:43:00,65.0,54.0,29.84,NNW,340,7.0,8.0,67,0.00,,,0.35,,2013-06-14 16:43:00,
2013-06-14 12:53:00,65.0,52.0,29.81,NNW,345,7.0,9.0,62,0.00,,,0.35,,2013-06-14 16:53:00,
2013-06-14 13:02:00,66.0,53.0,29.84,NNW,330,7.0,8.0,63,0.00,,,0.35,,2013-06-14 17:02:00,
2013-06-14 13:12:00,66.0,53.0,29.84,NNW,330,7.0,8.0,63,0.00,,,0.35,,2013-06-14 17:12:00,
2013-06-14 13:23:00,68.0,52.0,29.84,NNE,20,7.0,10.0,57,0.00,,,0.35,,2013-06-14 17:23:00,
2013-06-14 13:34:00,67.0,51.0,29.84,NNW,340,7.0,7.0,57,0.00,,,0.35,,2013-06-14 17:34:00,
2013-06-14 13:43:00,67.0,51.0,29.84,NNW,340,7.0,7.0,57,0.00,,,0.35,,2013-06-14 17:43:00,
2013-06-14 13:53:00,68.0,52.0,29.84,NNW,335,5.0,8.0,56,0.00,,,0.35,,2013-06-14 17:53:00,
2013-06-14 14:02:00,68.0,51.0,29.84,NW,320,5.0,9.0,55,0.00,,,0.35,,2013-06-14 18:02:00,
2013-06-14 14:11:00,68.0,51.0,29.84,NW,320,5.0,9.0,55,0.00,,,0.35,,2013-06-14 18:11:00,
2013-06-14 14:42:00,69.0,50.0,29.87,North,355,6.0,9.0,50,0.00,,,0.35,,2013-06-14 18:42:00,
2013-06-14 14:52:00,70.0,50.0,29.87,NNW,340,6.0,7.0,49,0.00,,,0.35,,2013-06-14 18:52:00,
2013-06-14 15:01:00,69.0,50.0,29.87,North,355,6.0,9.0,50,0.00,,,0.35,,2013-06-14 19:01:00,
2013-06-14 15:11:00,69.0,50.0,29.87,North,355,6.0,9.0,50,0.00,,,0.35,,2013-06-14 19:11:00,
2013-06-14 15:22:00,69.0,50.0,29.87,North,355,6.0,9.0,50,0.00,,,0.35,,2013-06-14 19:22:00,
2013-06-14 15:32:00,69.0,50.0,29.87,North,355,6.0,9.0,50,0.00,,,0.35,,2013-06-14 19:32:00,
2013-06-14 15:53:00,73.0,53.0,29.87,West,270,3.0,6.0,49,0.00,,,0.35,,2013-06-14 19:53:00,
2013-06-14 16:22:00,73.0,50.0,29.84,North,350,5.0,9.0,45,0.00,,,0.35,,2013-06-14 20:22:00,
2013-06-14 16:33:00,76.0,51.0,29.84,NW,310,5.0,7.0,42,0.00,,,0.35,,2013-06-14 20:33:00,
2013-06-14 17:02:00,77.0,52.0,29.84,NW,315,3.0,6.0,42,0.00,,,0.35,,2013-06-14 21:02:00,
2013-06-14 17:22:00,76.0,52.0,29.84,WNW,300,3.0,6.0,44,0.00,,,0.35,,2013-06-14 21:22:00,
2013-06-14 17:34:00,74.0,52.0,29.84,West,270,2.0,3.0,47,0.00,,,0.35,,2013-06-14 21:34:00,
2013-06-14 17:42:00,74.0,52.0,29.84,West,270,2.0,3.0,47,0.00,,,0.35,,2013-06-14 21:42:00,
2013-06-14 17:52:00,76.0,55.0,29.84,West,280,2.0,3.0,49,0.00,,,0.33,,2013-06-14 21:52:00,
2013-06-14 18:02:00,76.0,54.0,29.84,West,265,1.0,2.0,47,0.00,,,0.30,,2013-06-14 22:02:00,
2013-06-14 18:12:00,76.0,54.0,29.84,West,265,1.0,2.0,47,0.00,,,0.30,,2013-06-14 22:12:00,
2013-06-14 18:22:00,74.0,51.0,29.84,West,265,1.0,5.0,45,0.00,,,0.24,,2013-06-14 22:22:00,
2013-06-14 18:33:00,73.0,53.0,29.84,NNE,30,1.0,2.0,50,0.00,,,0.21,,2013-06-14 22:33:00,
2013-06-14 18:43:00,73.0,53.0,29.84,NNE,30,1.0,2.0,50,0.00,,,0.21,,2013-06-14 22:43:00,
2013-06-14 18:53:00,72.0,53.0,29.84,SSE,150,0.0,2.0,51,0.00,,,0.20,,2013-06-14 22:53:00,
2013-06-14 19:02:00,71.0,56.0,29.84,ESE,105,1.0,2.0,59,0.00,,,0.20,,2013-06-14 23:02:00,
2013-06-14 19:12:00,71.0,56.0,29.84,ESE,105,1.0,2.0,59,0.00,,,0.20,,2013-06-14 23:12:00,
2013-06-14 19:22:00,65.0,56.0,29.84,ESE,120,0.0,0.0,72,0.07,,,0.27,,2013-06-14 23:22:00,
2013-06-14 19:33:00,65.0,59.0,29.84,ESE,120,0.0,0.0,81,0.07,,,0.26,,2013-06-14 23:33:00,
2013-06-14 19:43:00,65.0,59.0,29.84,ESE,120,0.0,0.0,81,0.07,,,0.26,,2013-06-14 23:43:00,
2013-06-14 19:52:00,64.0,60.0,29.84,ESE,120,0.0,0.0,88,0.09,,,0.27,,2013-06-14 23:52:00,
2013-06-14 20:01:00,63.0,60.0,29.87,NNE,20,0.0,5.0,89,0.09,,,0.26,,2013-06-15 00:01:00,
2013-06-14 20:12:00,63.0,60.0,29.87,NNE,20,0.0,5.0,89,0.09,,,0.26,,2013-06-15 00:12:00,
2013-06-14 20:23:00,61.0,59.0,29.90,SE,135,6.0,9.0,93,0.28,,,0.52,,2013-06-15 00:23:00,
2013-06-14 20:34:00,60.0,58.0,29.87,SE,135,3.0,5.0,94,0.33,,,0.57,,2013-06-15 00:34:00,
2013-06-14 20:43:00,60.0,58.0,29.87,SE,135,3.0,5.0,94,0.33,,,0.57,,2013-06-15 00:43:00,
2013-06-14 20:53:00,60.0,59.0,29.87,SE,145,0.0,0.0,97,0.31,,,0.57,,2013-06-15 00:53:00,
2013-06-14 21:01:00,60.0,59.0,29.87,SE,145,0.0,0.0,97,0.31,,,0.57,,2013-06-15 01:01:00,
2013-06-14 21:11:00,60.0,59.0,29.87,SE,145,0.0,0.0,97,0.31,,,0.57,,2013-06-15 01:11:00,
2013-06-14 21:22:00,60.0,60.0,29.90,North,0,0.0,0.0,100,0.04,,,0.57,,2013-06-15 01:22:00,
2013-06-14 21:33:00,60.0,60.0,29.90,North,0,0.0,0.0,100,0.04,,,0.57,,2013-06-15 01:33:00,
2013-06-14 21:43:00,60.0,60.0,29.90,North,0,0.0,0.0,100,0.00,,,0.57,,2013-06-15 01:43:00,
2013-06-14 21:54:00,60.0,60.0,29.90,North,0,0.0,0.0,100,0.00,,,0.57,,2013-06-15 01:54:00,
2013-06-14 22:02:00,60.0,60.0,29.90,North,0,0.0,0.0,100,0.00,,,0.57,,2013-06-15 02:02:00,
2013-06-14 22:12:00,60.0,60.0,29.90,North,0,0.0,0.0,100,0.00,,,0.57,,2013-06-15 02:12:00,
2013-06-14 22:23:00,60.0,60.0,29.90,North,0,0.0,0.0,100,0.00,,,0.57,,2013-06-15 02:23:00,
2013-06-14 22:34:00,58.0,58.0,29.93,North,355,0.0,0.0,100,0.00,,,0.57,,2013-06-15 02:34:00,
2013-06-14 22:43:00,58.0,58.0,29.93,North,355,0.0,0.0,100,0.00,,,0.57,,2013-06-15 02:43:00,
2013-06-14 22:53:00,58.0,58.0,29.93,North,355,0.0,0.0,100,0.00,,,0.57,,2013-06-15 02:53:00,
2013-06-14 23:01:00,58.0,58.0,29.93,North,355,0.0,0.0,100,0.00,,,0.57,,2013-06-15 03:01:00,
2013-06-14 23:11:00,58.0,58.0,29.93,North,355,0.0,0.0,100,0.00,,,0.57,,2013-06-15 03:11:00,
2013-06-14 23:24:00,59.0,59.0,29.93,North,355,0.0,0.0,100,0.00,,,0.57,,2013-06-15 03:24:00,
2013-06-14 23:32:00,59.0,59.0,29.93,North,355,0.0,0.0,100,0.00,,,0.57,,2013-06-15 03:32:00,
2013-06-14 23:44:00,59.0,59.0,29.93,North,355,0.0,0.0,100,0.00,,,0.57,,2013-06-15 03:44:00,
2013-06-14 23:53:00,58.0,58.0,29.93,North,355,0.0,0.0,100,0.00,,,0.57,,2013-06-15 03:53:00,